createdAt,value
2023-04-12T00:01:26.250Z,68.56
2023-04-12T00:06:19.188Z,68.89
2023-04-12T00:11:11.883Z,69.23
2023-04-12T00:16:04.662Z,69.51
2023-04-12T00:20:57.484Z,69.84
2023-04-12T00:25:50.796Z,69.95
2023-04-12T00:30:43.987Z,69.98
2023-04-12T00:35:36.865Z,70.45
2023-04-12T00:40:29.784Z,70.35
2023-04-12T00:45:22.911Z,70.70
2023-04-12T00:50:15.660Z,70.56
2023-04-12T00:55:09.582Z,70.91
2023-04-12T01:00:02.820Z,70.84
2023-04-12T01:04:58.764Z,71.02
2023-04-12T01:09:53.266Z,71.25
2023-04-12T01:14:58.266Z,71.38
2023-04-12T01:20:13.603Z,71.25
2023-04-12T01:25:09.762Z,71.37
2023-04-12T01:30:04.420Z,71.49
2023-04-12T01:34:58.931Z,71.87
2023-04-12T01:39:52.234Z,72.50
2023-04-12T01:44:44.961Z,73.20
2023-04-12T01:49:44.791Z,73.76
2023-04-12T01:54:39.633Z,73.71
2023-04-12T01:59:42.836Z,73.75
2023-04-12T02:04:36.708Z,74.07
2023-04-12T02:09:29.401Z,74.36
2023-04-12T02:14:22.199Z,74.32
2023-04-12T02:19:14.976Z,73.94
2023-04-12T02:24:08.333Z,74.45
2023-04-12T02:29:01.094Z,74.80
2023-04-12T02:33:54.254Z,74.72
2023-04-12T02:38:50.948Z,75.11
2023-04-12T02:43:44.219Z,75.01
2023-04-12T02:48:36.969Z,75.18
2023-04-12T02:53:30.858Z,75.14
2023-04-12T02:58:37.674Z,75.34
2023-04-12T03:03:32.272Z,75.42
2023-04-12T03:08:31.276Z,75.52
2023-04-12T03:13:24.605Z,75.53
2023-04-12T03:18:21.161Z,75.60
2023-04-12T03:23:15.577Z,75.69
2023-04-12T03:28:11.504Z,75.72
2023-04-12T03:33:16.020Z,75.69
2023-04-12T03:38:09.669Z,75.85
2023-04-12T03:43:03.254Z,75.96
2023-04-12T03:47:56.449Z,76.08
2023-04-12T03:52:50.345Z,76.13
2023-04-12T03:57:43.622Z,76.14
2023-04-12T04:02:37.475Z,76.28
2023-04-12T04:07:31.948Z,76.37
2023-04-12T04:12:24.984Z,76.30
2023-04-12T04:17:20.628Z,76.25
2023-04-12T04:22:14.060Z,76.50
2023-04-12T04:27:07.507Z,76.44
2023-04-12T04:32:00.687Z,76.54
2023-04-12T04:36:54.030Z,76.80
2023-04-12T04:41:54.873Z,76.86
2023-04-12T04:47:07.006Z,76.97
2023-04-12T04:52:03.730Z,76.96
2023-04-12T04:56:58.397Z,76.99
2023-04-12T05:01:52.818Z,76.82
2023-04-12T05:06:47.399Z,76.76
2023-04-12T05:11:41.523Z,76.66
2023-04-12T05:16:36.229Z,76.92
2023-04-12T05:21:29.284Z,76.50
2023-04-12T05:26:22.607Z,76.69
2023-04-12T05:31:16.362Z,76.15
2023-04-12T05:36:11.398Z,75.77
2023-04-12T05:41:04.898Z,75.37
2023-04-12T05:45:58.626Z,75.10
2023-04-12T05:50:51.982Z,74.81
2023-04-12T05:55:44.714Z,74.12
2023-04-12T06:00:37.920Z,73.90
2023-04-12T06:05:30.782Z,73.99
2023-04-12T06:10:23.619Z,73.61
2023-04-12T06:15:19.976Z,73.58
2023-04-12T06:20:16.648Z,73.19
2023-04-12T06:25:10.047Z,73.44
2023-04-12T06:30:02.851Z,73.37
2023-04-12T06:34:58.673Z,73.23
2023-04-12T06:39:52.669Z,73.32
2023-04-12T06:44:45.345Z,72.82
2023-04-12T06:49:39.494Z,72.81
2023-04-12T06:54:32.191Z,72.83
2023-04-12T06:59:24.915Z,72.31
2023-04-12T07:04:18.086Z,72.21
2023-04-12T07:09:11.484Z,72.12
2023-04-12T07:14:04.231Z,71.89
2023-04-12T07:18:57.442Z,71.65
2023-04-12T07:23:51.585Z,70.53
2023-04-12T07:28:45.188Z,70.23
2023-04-12T07:33:42.974Z,70.25
2023-04-12T07:38:38.125Z,70.54
2023-04-12T07:43:35.589Z,70.29
2023-04-12T07:48:28.447Z,70.27
2023-04-12T07:53:25.378Z,70.37
2023-04-12T07:58:18.742Z,70.35
2023-04-12T08:03:12.902Z,70.04
2023-04-12T08:08:06.395Z,69.99
2023-04-12T08:13:00.297Z,69.55
2023-04-12T08:17:53.069Z,69.76
2023-04-12T08:22:46.895Z,69.79
2023-04-12T08:27:43.667Z,69.72
2023-04-12T08:32:38.763Z,70.12
2023-04-12T08:37:31.914Z,70.24
2023-04-12T08:42:24.862Z,70.12
2023-04-12T08:47:17.839Z,69.73
2023-04-12T08:52:11.418Z,69.00
2023-04-12T08:57:06.624Z,68.74
2023-04-12T09:02:00.232Z,68.40
2023-04-12T09:06:53.096Z,68.39
2023-04-12T09:11:46.134Z,67.91
2023-04-12T09:16:40.344Z,67.27
2023-04-12T09:21:34.797Z,66.60
2023-04-12T09:26:31.628Z,65.18
2023-04-12T09:31:24.320Z,64.16
2023-04-12T09:36:19.166Z,63.53
2023-04-12T09:41:26.923Z,62.11
2023-04-12T09:46:20.214Z,60.19
2023-04-12T09:51:14.036Z,59.10
2023-04-12T09:56:08.517Z,59.10
2023-04-12T10:01:03.765Z,59.62
2023-04-12T10:05:56.744Z,59.57
2023-04-12T10:10:49.510Z,60.12
2023-04-12T10:15:43.494Z,60.36
2023-04-12T10:20:37.303Z,60.48
2023-04-12T10:25:32.165Z,60.08
2023-04-12T10:30:25.081Z,58.97
2023-04-12T10:35:17.808Z,57.31
2023-04-12T10:40:21.583Z,54.92
2023-04-12T10:45:34.151Z,55.67
2023-04-12T10:50:30.964Z,55.88
2023-04-12T10:55:30.094Z,55.10
2023-04-12T11:00:22.909Z,54.85
2023-04-12T11:05:19.376Z,54.78
2023-04-12T11:10:17.574Z,55.34
2023-04-12T11:15:13.681Z,56.18
2023-04-12T11:20:14.496Z,56.55
2023-04-12T11:25:07.470Z,55.94
2023-04-12T11:30:00.982Z,54.75
2023-04-12T11:34:54.640Z,54.14
2023-04-12T11:39:48.638Z,53.61
2023-04-12T11:44:56.335Z,52.69
2023-04-12T11:49:54.934Z,52.71
2023-04-12T11:54:48.702Z,51.85
2023-04-12T11:59:41.554Z,51.18
2023-04-12T12:04:34.914Z,51.46
2023-04-12T12:09:28.152Z,50.11
2023-04-12T12:14:24.380Z,51.08
2023-04-12T12:19:17.052Z,51.72
2023-04-12T12:24:14.558Z,51.93
2023-04-12T12:29:09.423Z,50.69
2023-04-12T12:34:04.317Z,50.46
2023-04-12T12:39:04.464Z,51.62
2023-04-12T12:43:57.393Z,50.99
2023-04-12T12:48:50.486Z,50.94
2023-04-12T12:53:43.221Z,51.07
2023-04-12T12:58:37.371Z,50.43
2023-04-12T13:03:32.737Z,49.66
2023-04-12T13:08:26.459Z,50.10
2023-04-12T13:13:22.143Z,50.30
2023-04-12T13:18:17.729Z,50.76
2023-04-12T13:23:10.750Z,49.77
2023-04-12T13:28:03.540Z,49.37
2023-04-12T13:32:56.509Z,48.68
2023-04-12T13:37:49.243Z,47.22
2023-04-12T13:42:41.961Z,47.50
2023-04-12T13:47:35.638Z,48.22
2023-04-12T13:52:28.473Z,48.20
2023-04-12T13:57:21.308Z,47.85
2023-04-12T14:02:14.099Z,47.64
2023-04-12T14:07:06.874Z,47.17
2023-04-12T14:12:01.774Z,46.99
2023-04-12T14:16:57.333Z,47.54
2023-04-12T14:21:51.925Z,47.93
2023-04-12T14:26:45.479Z,47.32
2023-04-12T14:31:38.886Z,46.68
2023-04-12T14:36:33.530Z,46.08
2023-04-12T14:41:26.622Z,46.65
2023-04-12T14:46:19.424Z,46.74
2023-04-12T14:51:12.154Z,46.83
2023-04-12T14:56:05.030Z,46.43
2023-04-12T15:01:00.287Z,47.01
2023-04-12T15:05:53.384Z,47.05
2023-04-12T15:10:46.693Z,47.41
2023-04-12T15:15:39.423Z,46.89
2023-04-12T15:20:32.115Z,47.08
2023-04-12T15:25:26.300Z,47.76
2023-04-12T15:30:19.361Z,48.32
2023-04-12T15:40:13.689Z,49.74
2023-04-12T15:45:06.729Z,50.45
2023-04-12T15:49:59.491Z,50.69
2023-04-12T15:54:52.318Z,50.42
2023-04-12T15:59:45.012Z,50.60
2023-04-12T16:04:38.198Z,50.74
2023-04-12T16:09:33.393Z,50.70
2023-04-12T16:14:26.131Z,51.19
2023-04-12T16:19:18.923Z,51.90
2023-04-12T16:24:12.350Z,51.97
2023-04-12T16:29:06.225Z,52.46
2023-04-12T16:33:59.040Z,52.47
2023-04-12T16:38:54.632Z,52.56
2023-04-12T16:43:47.392Z,52.91
2023-04-12T16:48:41.321Z,53.45
2023-04-12T16:53:34.056Z,53.40
2023-04-12T16:58:27.430Z,53.73
2023-04-12T17:03:21.305Z,53.91
2023-04-12T17:08:15.668Z,54.31
2023-04-12T17:13:08.510Z,54.64
2023-04-12T17:18:05.589Z,54.98
2023-04-12T17:22:58.989Z,55.23
2023-04-12T17:27:51.747Z,55.48
2023-04-12T17:32:44.885Z,55.79
2023-04-12T17:37:38.790Z,55.96
2023-04-12T17:42:31.547Z,56.22
2023-04-12T17:47:24.285Z,56.49
2023-04-12T17:52:17.921Z,56.75
2023-04-12T17:57:10.890Z,57.00
2023-04-12T18:02:03.878Z,57.35
2023-04-12T18:06:58.054Z,57.65
2023-04-12T18:11:50.869Z,57.91
2023-04-12T18:16:44.092Z,58.04
2023-04-12T18:21:36.793Z,58.35
2023-04-12T18:26:30.855Z,58.39
2023-04-12T18:31:23.698Z,58.87
2023-04-12T18:36:16.592Z,58.99
2023-04-12T18:41:12.772Z,59.24
2023-04-12T18:46:05.643Z,59.61
2023-04-12T18:50:59.578Z,60.06
2023-04-12T18:55:52.820Z,60.13
2023-04-12T19:00:46.246Z,59.91
2023-04-12T19:05:39.355Z,60.03
2023-04-12T19:10:32.476Z,60.28
2023-04-12T19:15:25.582Z,60.66
2023-04-12T19:20:18.345Z,60.70
2023-04-12T19:25:11.354Z,60.92
2023-04-12T19:30:04.659Z,61.34
2023-04-12T19:34:57.528Z,61.65
2023-04-12T19:39:50.699Z,61.80
2023-04-12T19:44:44.917Z,61.99
2023-04-12T19:49:38.227Z,62.20
2023-04-12T19:54:31.643Z,62.38
2023-04-12T19:59:26.902Z,62.76
2023-04-12T20:04:21.753Z,63.03
2023-04-12T20:09:15.402Z,63.21
2023-04-12T20:14:09.086Z,63.35
2023-04-12T20:19:05.005Z,63.60
2023-04-12T20:23:59.126Z,63.70
2023-04-12T20:28:51.846Z,63.80
2023-04-12T20:33:44.538Z,63.90
2023-04-12T20:38:37.231Z,64.32
2023-04-12T20:43:31.033Z,64.44
2023-04-12T20:48:24.868Z,64.51
2023-04-12T20:53:18.336Z,64.79
2023-04-12T20:58:12.520Z,64.99
2023-04-12T21:03:06.391Z,65.14
2023-04-12T21:07:59.233Z,65.26
2023-04-12T21:12:52.685Z,65.52
2023-04-12T21:17:46.491Z,66.06
2023-04-12T21:22:39.675Z,66.12
2023-04-12T21:27:33.316Z,66.36
2023-04-12T21:32:26.482Z,66.43
2023-04-12T21:37:22.164Z,66.70
2023-04-12T21:42:14.904Z,66.87
2023-04-12T21:47:07.739Z,66.78
2023-04-12T21:52:00.470Z,66.86
2023-04-12T21:56:53.193Z,67.01
2023-04-12T22:01:46.073Z,67.53
2023-04-12T22:06:38.781Z,67.67
2023-04-12T22:11:31.863Z,67.87
2023-04-12T22:16:24.771Z,68.26
2023-04-12T22:21:17.866Z,68.36
2023-04-12T22:26:11.413Z,68.34
2023-04-12T22:31:04.173Z,68.25
2023-04-12T22:35:57.134Z,68.27
2023-04-12T22:40:49.904Z,68.46
2023-04-12T22:45:42.823Z,68.32
2023-04-12T22:50:35.533Z,68.60
2023-04-12T22:55:28.877Z,68.84
2023-04-12T23:00:25.246Z,68.78
2023-04-12T23:05:19.878Z,69.03
2023-04-12T23:10:12.796Z,69.13
2023-04-12T23:15:06.564Z,69.27
2023-04-12T23:20:01.991Z,69.35
2023-04-12T23:24:55.006Z,69.38
2023-04-12T23:29:48.215Z,69.43
2023-04-12T23:34:41.351Z,69.55
2023-04-12T23:39:34.671Z,69.53
2023-04-12T23:44:28.127Z,69.61
2023-04-12T23:49:20.838Z,69.66
2023-04-12T23:54:13.528Z,69.88
2023-04-12T23:59:06.252Z,69.82
